Time;durP1;ratioP1;P1;durP2;ratioP2;P2;SDS_P1;SDS_P2;PMS_P1;PMS_P2;Temp;Humidity;BMP_temperature;BMP_pressure;BME280_temperature;BME280_humidity;BME280_pressure;Samples;Min_cycle;Max_cycle;Signal;HPM_P1;HPM_P2
2023/01/01 00:00:05;;;;;;;45.97;31.17;;;13.20;99.90;;;;;;6153078;23;20440;-81
2023/01/01 00:02:31;;;;;;;52.63;34.83;;;13.10;99.90;;;;;;6151086;23;20024;-82
2023/01/01 00:04:57;;;;;;;68.35;57.80;;;13.00;99.90;;;;;;6154743;23;20013;-81
2023/01/01 00:07:23;;;;;;;50.38;40.58;;;12.90;99.90;;;;;;6153361;23;20032;-81
2023/01/01 00:12:32;;;;;;;52.92;41.97;;;12.80;99.90;;;;;;6153940;23;20456;-81
2023/01/01 00:14:58;;;;;;;38.78;29.55;;;12.70;99.90;;;;;;6152809;23;20093;-81
2023/01/01 00:17:24;;;;;;;43.70;32.47;;;12.60;99.90;;;;;;6128032;23;20041;-82
2023/01/01 00:19:49;;;;;;;48.33;31.17;;;12.60;99.90;;;;;;6128146;23;20463;-82
2023/01/01 00:22:16;;;;;;;44.25;29.27;;;12.50;99.90;;;;;;6127959;23;20009;-82
2023/01/01 00:24:42;;;;;;;46.20;28.60;;;12.60;99.90;;;;;;6153975;23;20021;-81
2023/01/01 00:27:07;;;;;;;44.22;31.95;;;12.50;99.90;;;;;;6152425;23;20010;-82
2023/01/01 00:29:33;;;;;;;40.45;30.63;;;12.50;99.90;;;;;;6152283;23;20009;-81
2023/01/01 00:31:59;;;;;;;46.70;35.28;;;12.40;99.90;;;;;;6151777;23;20018;-81
2023/01/01 00:34:24;;;;;;;51.47;38.50;;;12.40;99.90;;;;;;6152197;23;20024;-82
2023/01/01 00:36:50;;;;;;;48.83;38.58;;;12.40;99.90;;;;;;6154179;23;20049;-81
2023/01/01 00:39:15;;;;;;;49.85;35.75;;;12.40;99.90;;;;;;6127903;23;20092;-81
2023/01/01 00:41:41;;;;;;;41.78;33.05;;;12.40;99.90;;;;;;6127544;23;20006;-82
2023/01/01 00:44:07;;;;;;;44.50;32.88;;;12.40;99.90;;;;;;6154476;23;20328;-82
2023/01/01 00:46:32;;;;;;;41.88;31.60;;;12.40;99.90;;;;;;6151846;23;20013;-81
2023/01/01 00:48:58;;;;;;;45.97;32.33;;;12.40;99.90;;;;;;6152149;23;20036;-81
2023/01/01 00:51:23;;;;;;;42.42;29.20;;;12.40;99.90;;;;;;6154020;23;20039;-82
2023/01/01 00:53:49;;;;;;;40.78;28.40;;;12.40;99.90;;;;;;6151946;23;20096;-82
2023/01/01 00:56:15;;;;;;;42.78;28.27;;;12.40;99.90;;;;;;6152316;23;20374;-81
2023/01/01 00:58:40;;;;;;;38.92;27.30;;;12.40;99.90;;;;;;6153947;23;20005;-81
2023/01/01 01:01:06;;;;;;;40.95;27.83;;;12.40;99.90;;;;;;6154176;23;20060;-81
2023/01/01 01:03:31;;;;;;;41.53;27.88;;;12.40;99.90;;;;;;6151975;23;20380;-81
2023/01/01 01:06:09;;;;;;;38.97;27.67;;;12.50;99.90;;;;;;6151927;23;20452;-81
2023/01/01 01:08:36;;;;;;;43.28;29.00;;;12.60;99.90;;;;;;6154264;23;20013;-82
2023/01/01 01:11:07;;;;;;;37.60;28.08;;;12.60;99.90;;;;;;6154086;23;20014;-80
2023/01/01 01:13:33;;;;;;;39.33;29.45;;;12.60;99.90;;;;;;6153736;23;20317;-82
2023/01/01 01:15:59;;;;;;;35.42;26.85;;;12.60;99.90;;;;;;6127190;23;20084;-82
2023/01/01 01:18:25;;;;;;;37.22;24.65;;;12.70;99.90;;;;;;6152034;23;20010;-81
2023/01/01 01:20:52;;;;;;;42.47;27.25;;;12.80;99.90;;;;;;6153474;23;20075;-82
2023/01/01 01:23:19;;;;;;;42.08;28.08;;;12.80;99.90;;;;;;6153754;23;20005;-81
2023/01/01 01:25:45;;;;;;;38.92;28.58;;;12.80;99.90;;;;;;6153799;23;20014;-82
2023/01/01 01:28:11;;;;;;;37.25;28.85;;;12.70;99.90;;;;;;6154267;23;20068;-81
2023/01/01 01:30:38;;;;;;;42.88;31.20;;;12.90;99.90;;;;;;6151383;23;20391;-82
2023/01/01 01:33:03;;;;;;;38.42;28.02;;;12.80;99.90;;;;;;6151956;23;20044;-81
2023/01/01 01:35:29;;;;;;;51.40;34.92;;;12.70;99.90;;;;;;6151749;23;20013;-81
2023/01/01 01:37:55;;;;;;;40.13;32.45;;;12.60;99.90;;;;;;6151798;23;20049;-81
2023/01/01 01:40:21;;;;;;;48.95;35.97;;;12.80;99.90;;;;;;6153169;23;20014;-83
2023/01/01 01:42:47;;;;;;;49.65;36.53;;;12.60;99.90;;;;;;6127041;23;20099;-80
2023/01/01 01:45:14;;;;;;;51.58;38.70;;;12.60;99.90;;;;;;6150934;23;20339;-82
2023/01/01 01:48:06;;;;;;;50.05;39.90;;;12.50;99.90;;;;;;6151648;23;20045;-81
2023/01/01 01:50:36;;;;;;;52.65;40.80;;;12.70;99.90;;;;;;6147437;23;20018;-80
2023/01/01 01:53:13;;;;;;;48.22;39.42;;;12.40;99.90;;;;;;6127517;23;20017;-80
2023/01/01 01:55:44;;;;;;;57.72;44.85;;;12.40;99.90;;;;;;6153389;23;20041;-81
2023/01/01 01:58:11;;;;;;;57.13;41.40;;;12.60;99.90;;;;;;6150965;23;20085;-81
2023/01/01 02:00:37;;;;;;;54.13;42.03;;;12.30;99.90;;;;;;6151914;23;20014;-80
2023/01/01 02:03:10;;;;;;;59.47;43.42;;;12.40;99.90;;;;;;6153292;23;20343;-80
2023/01/01 02:05:38;;;;;;;54.00;41.92;;;12.30;99.90;;;;;;6151511;23;20436;-80
2023/01/01 02:08:04;;;;;;;50.25;38.42;;;12.30;99.90;;;;;;6151370;23;20014;-80
2023/01/01 02:10:31;;;;;;;49.95;40.20;;;12.20;99.90;;;;;;6153319;23;20013;-79
2023/01/01 02:12:56;;;;;;;53.95;39.83;;;12.30;99.90;;;;;;6126187;23;20024;-80
2023/01/01 02:15:28;;;;;;;59.88;40.55;;;12.30;99.90;;;;;;6151380;23;20026;-80
2023/01/01 02:18:02;;;;;;;51.47;38.40;;;12.20;99.90;;;;;;6151682;23;20013;-80
2023/01/01 02:20:39;;;;;;;50.90;38.65;;;12.20;99.90;;;;;;6153119;23;20085;-80
2023/01/01 02:23:28;;;;;;;52.00;38.42;;;12.20;99.90;;;;;;6152924;23;20045;-80
2023/01/01 02:26:16;;;;;;;48.53;35.17;;;12.20;99.90;;;;;;6135712;23;20014;-79
2023/01/01 02:29:13;;;;;;;42.45;32.35;;;12.30;99.90;;;;;;6152236;23;20016;-80
2023/01/01 02:31:51;;;;;;;45.45;34.10;;;12.30;99.90;;;;;;6120965;23;20009;-79
2023/01/01 02:34:22;;;;;;;43.08;30.95;;;12.40;99.90;;;;;;6153286;23;20013;-80
2023/01/01 02:36:51;;;;;;;38.33;29.23;;;12.40;99.90;;;;;;6151295;23;20092;-80
2023/01/01 02:39:22;;;;;;;40.25;27.58;;;12.30;99.90;;;;;;6153669;23;20117;-79
2023/01/01 02:41:51;;;;;;;40.35;29.48;;;12.40;99.90;;;;;;6126992;23;20020;-81
2023/01/01 02:44:18;;;;;;;41.03;28.35;;;12.50;99.90;;;;;;6151254;23;20392;-82
2023/01/01 02:46:44;;;;;;;36.03;25.33;;;12.40;99.90;;;;;;6151938;23;20045;-81
2023/01/01 02:49:10;;;;;;;35.42;25.65;;;12.50;99.90;;;;;;6128350;23;20040;-81
2023/01/01 02:52:03;;;;;;;41.55;24.23;;;12.40;99.90;;;;;;6154865;23;20013;-80
2023/01/01 02:54:43;;;;;;;34.80;22.75;;;12.50;99.90;;;;;;6153497;23;20010;-80
2023/01/01 02:57:38;;;;;;;30.38;21.35;;;12.50;99.90;;;;;;6154548;23;20037;-80
2023/01/01 03:00:23;;;;;;;34.05;21.55;;;12.50;99.90;;;;;;6152932;23;20010;-81
2023/01/01 03:02:51;;;;;;;27.63;17.05;;;12.50;99.90;;;;;;6128463;23;20021;-80
2023/01/01 03:08:43;;;;;;;28.88;15.52;;;12.60;99.90;;;;;;6152773;23;20492;-80
2023/01/01 03:11:13;;;;;;;24.63;14.63;;;12.60;99.90;;;;;;6152269;23;20096;-81
2023/01/01 03:13:48;;;;;;;27.92;13.95;;;12.60;99.90;;;;;;6154403;23;20029;-81
2023/01/01 03:16:17;;;;;;;25.77;13.77;;;12.70;99.90;;;;;;6153057;23;20195;-81
2023/01/01 03:19:10;;;;;;;27.70;12.40;;;12.60;99.90;;;;;;6152811;23;20024;-82
2023/01/01 03:21:50;;;;;;;23.38;12.02;;;12.70;99.90;;;;;;6142014;23;20024;-80
2023/01/01 03:24:42;;;;;;;23.27;12.23;;;12.70;99.90;;;;;;6154638;23;20009;-81
2023/01/01 03:27:14;;;;;;;23.25;10.77;;;12.70;99.90;;;;;;6144369;23;20099;-81
2023/01/01 03:29:42;;;;;;;18.48;10.77;;;12.70;99.90;;;;;;6153811;23;20064;-83
2023/01/01 03:32:13;;;;;;;22.52;10.10;;;12.70;99.90;;;;;;6154162;23;20024;-81
2023/01/01 03:34:44;;;;;;;17.10;7.90;;;12.80;99.90;;;;;;6152607;23;20049;-81
2023/01/01 03:37:16;;;;;;;16.70;7.88;;;12.80;99.90;;;;;;6151612;23;20456;-81
2023/01/01 03:39:51;;;;;;;19.38;8.00;;;12.80;99.90;;;;;;6153525;23;20013;-81
2023/01/01 03:42:42;;;;;;;21.35;8.10;;;12.80;99.90;;;;;;6152647;23;20018;-80
2023/01/01 03:45:15;;;;;;;22.73;7.45;;;12.90;99.90;;;;;;6128015;23;20014;-81
2023/01/01 03:47:41;;;;;;;16.63;7.32;;;12.90;99.90;;;;;;6155015;23;20028;-81
2023/01/01 03:50:08;;;;;;;18.55;7.57;;;12.80;99.90;;;;;;6154324;23;20047;-81
2023/01/01 03:52:47;;;;;;;19.67;7.70;;;12.80;99.90;;;;;;6152279;23;20408;-81
2023/01/01 03:55:29;;;;;;;18.75;7.72;;;12.80;99.90;;;;;;6153658;23;20050;-81
2023/01/01 03:58:07;;;;;;;18.63;7.70;;;12.60;99.90;;;;;;6154405;23;20017;-81
2023/01/01 04:00:58;;;;;;;23.50;8.40;;;12.50;99.90;;;;;;6154283;23;20052;-81
2023/01/01 04:03:27;;;;;;;20.25;7.97;;;12.40;99.90;;;;;;6147015;23;20109;-81
2023/01/01 04:05:53;;;;;;;19.13;8.73;;;12.30;99.90;;;;;;6152463;23;20432;-81
2023/01/01 04:08:19;;;;;;;18.88;9.00;;;12.20;99.90;;;;;;6151849;23;20017;-81
2023/01/01 04:10:58;;;;;;;20.30;9.18;;;12.30;99.90;;;;;;6152070;23;20021;-80
2023/01/01 04:13:24;;;;;;;27.83;8.70;;;12.20;99.90;;;;;;6127449;23;20018;-81
2023/01/01 04:15:49;;;;;;;20.83;8.77;;;12.10;99.90;;;;;;6152572;23;20380;-81
2023/01/01 04:18:15;;;;;;;24.90;8.80;;;12.10;99.90;;;;;;6127911;23;20009;-81
2023/01/01 04:20:41;;;;;;;20.77;9.23;;;12.00;99.90;;;;;;6152705;23;20096;-81
2023/01/01 04:23:06;;;;;;;18.55;8.50;;;12.00;99.90;;;;;;6151777;23;20009;-81
2023/01/01 04:25:32;;;;;;;20.13;8.50;;;12.10;99.90;;;;;;6152240;23;20459;-81
2023/01/01 04:27:58;;;;;;;20.67;8.18;;;11.90;99.90;;;;;;6153520;23;20021;-81
2023/01/01 04:30:25;;;;;;;23.30;8.65;;;11.80;99.90;;;;;;6153938;23;20093;-81
2023/01/01 04:32:51;;;;;;;19.08;8.20;;;11.80;99.90;;;;;;6152173;23;20017;-81
2023/01/01 04:35:16;;;;;;;22.58;8.02;;;11.80;99.90;;;;;;6152130;23;20325;-81
2023/01/01 04:37:43;;;;;;;18.25;7.63;;;11.80;99.90;;;;;;6151800;23;20013;-81
2023/01/01 04:40:10;;;;;;;18.98;7.63;;;11.80;99.90;;;;;;6153670;23;20013;-81
2023/01/01 04:42:36;;;;;;;23.05;8.00;;;11.80;99.90;;;;;;6152181;23;20020;-80
2023/01/01 04:45:02;;;;;;;17.35;6.97;;;11.70;99.90;;;;;;6153735;23;20006;-80
2023/01/01 04:47:28;;;;;;;15.88;7.00;;;11.70;99.90;;;;;;6152340;23;20013;-82
2023/01/01 04:49:54;;;;;;;25.55;8.20;;;11.80;99.90;;;;;;6153806;23;20342;-81
2023/01/01 04:52:20;;;;;;;17.75;7.32;;;11.70;99.90;;;;;;6151373;23;20005;-81
2023/01/01 04:54:46;;;;;;;17.80;7.88;;;11.70;99.90;;;;;;6153734;23;20009;-80
2023/01/01 04:57:11;;;;;;;20.23;7.18;;;11.60;99.90;;;;;;6153988;23;20016;-81
2023/01/01 04:59:37;;;;;;;19.33;6.97;;;11.60;99.90;;;;;;6153965;23;20032;-80
2023/01/01 05:02:03;;;;;;;17.85;5.88;;;11.60;99.90;;;;;;6153889;23;20009;-81
2023/01/01 05:04:28;;;;;;;16.15;6.38;;;11.60;99.90;;;;;;6153863;23;20017;-81
2023/01/01 05:06:54;;;;;;;18.15;5.22;;;11.70;99.90;;;;;;6126759;23;20014;-81
2023/01/01 05:09:20;;;;;;;12.27;5.05;;;11.70;99.90;;;;;;6153731;23;20028;-81
2023/01/01 05:11:46;;;;;;;16.40;5.10;;;11.80;99.90;;;;;;6152658;23;20017;-82
2023/01/01 05:14:11;;;;;;;15.30;4.70;;;11.90;99.90;;;;;;6127254;23;20084;-81
2023/01/01 05:16:38;;;;;;;14.35;4.78;;;11.90;99.90;;;;;;6153627;23;20053;-81
2023/01/01 05:19:05;;;;;;;14.48;4.95;;;11.80;99.90;;;;;;6151848;23;20027;-81
2023/01/01 05:21:34;;;;;;;13.77;4.63;;;11.90;99.90;;;;;;6151116;23;20037;-81
2023/01/01 05:24:02;;;;;;;12.38;4.60;;;11.90;99.90;;;;;;6151600;23;20013;-81
2023/01/01 05:26:31;;;;;;;13.35;5.10;;;12.10;99.90;;;;;;6127040;23;20021;-81
2023/01/01 05:28:58;;;;;;;14.35;4.72;;;12.00;99.90;;;;;;6153629;23;20052;-81
2023/01/01 05:31:30;;;;;;;12.43;3.85;;;12.00;99.90;;;;;;6151786;23;20470;-80
2023/01/01 05:33:57;;;;;;;16.05;4.30;;;12.00;99.90;;;;;;6151864;23;20092;-81
2023/01/01 05:36:26;;;;;;;12.10;4.22;;;11.90;99.90;;;;;;6150986;23;20471;-81
2023/01/01 05:38:52;;;;;;;15.20;4.40;;;11.90;99.90;;;;;;6153420;23;20013;-81
2023/01/01 05:41:19;;;;;;;14.90;4.72;;;12.00;99.90;;;;;;6153314;23;20093;-81
2023/01/01 05:43:45;;;;;;;10.93;4.20;;;11.90;99.90;;;;;;6151648;23;20023;-81
2023/01/01 05:46:13;;;;;;;13.48;4.20;;;11.90;99.90;;;;;;6151761;23;20088;-82
2023/01/01 05:48:39;;;;;;;11.57;4.03;;;12.00;99.90;;;;;;6127036;23;20021;-82
2023/01/01 05:51:06;;;;;;;13.00;3.40;;;12.00;99.90;;;;;;6150936;23;20026;-81
2023/01/01 05:53:33;;;;;;;15.68;3.72;;;12.00;99.90;;;;;;6153403;23;20014;-81
2023/01/01 05:55:59;;;;;;;8.70;3.60;;;12.00;99.90;;;;;;6153479;23;20048;-81
2023/01/01 05:58:26;;;;;;;9.77;3.17;;;12.00;99.90;;;;;;6151463;23;20404;-81
2023/01/01 06:00:52;;;;;;;10.63;3.03;;;12.00;99.90;;;;;;6151698;23;20433;-81
2023/01/01 06:03:19;;;;;;;8.68;3.20;;;11.90;99.90;;;;;;6154211;23;20336;-81
2023/01/01 06:05:44;;;;;;;12.93;3.60;;;11.90;99.90;;;;;;6153037;23;20336;-81
2023/01/01 06:08:10;;;;;;;10.48;3.20;;;11.90;99.90;;;;;;6151575;23;20091;-80
2023/01/01 06:10:36;;;;;;;12.45;3.00;;;11.90;99.90;;;;;;6153272;23;20064;-81
2023/01/01 06:13:01;;;;;;;11.10;2.92;;;12.00;99.90;;;;;;6151175;23;20013;-81
2023/01/01 06:15:27;;;;;;;10.85;2.97;;;11.90;99.90;;;;;;6126955;23;20013;-81
2023/01/01 06:17:53;;;;;;;11.95;3.05;;;11.90;99.90;;;;;;6151665;23;20471;-81
2023/01/01 06:20:19;;;;;;;11.82;3.00;;;11.90;99.90;;;;;;6150882;23;20092;-82
2023/01/01 06:22:45;;;;;;;9.13;3.05;;;11.90;99.90;;;;;;6151824;23;20056;-81
2023/01/01 06:25:11;;;;;;;10.50;2.90;;;11.90;99.90;;;;;;6155258;23;20028;-81
2023/01/01 06:27:36;;;;;;;10.82;2.90;;;11.90;99.90;;;;;;6154916;23;20009;-80
2023/01/01 06:30:04;;;;;;;8.43;2.35;;;11.80;99.90;;;;;;6153224;23;20010;-80
2023/01/01 06:32:29;;;;;;;8.70;2.15;;;11.90;99.90;;;;;;6153473;23;20328;-81
2023/01/01 06:34:55;;;;;;;10.00;2.78;;;11.90;99.90;;;;;;6152688;23;20085;-81
2023/01/01 06:37:20;;;;;;;11.65;2.28;;;11.90;99.90;;;;;;6153159;23;20005;-81
2023/01/01 06:39:46;;;;;;;8.30;2.30;;;11.80;99.90;;;;;;6128430;23;20444;-81
2023/01/01 06:42:12;;;;;;;7.78;2.05;;;11.80;99.90;;;;;;6153205;23;20075;-81
2023/01/01 06:44:37;;;;;;;7.20;2.20;;;11.80;99.90;;;;;;6155399;23;20079;-80
2023/01/01 06:47:03;;;;;;;10.45;2.53;;;11.80;99.90;;;;;;6155264;23;20036;-81
2023/01/01 06:49:28;;;;;;;7.65;1.95;;;11.80;99.90;;;;;;6127933;23;20373;-81
2023/01/01 06:51:54;;;;;;;7.13;2.13;;;11.80;99.90;;;;;;6153257;23;20091;-81
2023/01/01 06:54:20;;;;;;;15.50;2.97;;;11.70;99.90;;;;;;6128899;23;20044;-81
2023/01/01 06:56:46;;;;;;;11.98;2.42;;;11.80;99.90;;;;;;6154606;23;20014;-81
2023/01/01 06:59:11;;;;;;;8.95;1.80;;;11.70;99.90;;;;;;6154942;23;20115;-81
2023/01/01 07:01:41;;;;;;;10.98;2.13;;;11.70;99.90;;;;;;6153055;23;20018;-81
2023/01/01 07:04:10;;;;;;;8.57;1.90;;;11.70;99.90;;;;;;6152554;23;20018;-81
2023/01/01 07:06:36;;;;;;;9.82;2.28;;;11.70;99.90;;;;;;6152985;23;20013;-81
2023/01/01 07:09:03;;;;;;;10.45;2.58;;;11.60;99.90;;;;;;6128415;23;20338;-81
2023/01/01 07:11:29;;;;;;;8.68;2.17;;;11.60;99.90;;;;;;6152999;23;20116;-81
2023/01/01 07:13:55;;;;;;;9.57;2.53;;;11.60;99.90;;;;;;6152703;23;20093;-81
2023/01/01 07:16:21;;;;;;;12.88;2.88;;;11.60;99.90;;;;;;6153396;23;20109;-81
2023/01/01 07:18:49;;;;;;;11.40;2.85;;;11.60;99.90;;;;;;6127683;23;20013;-81
2023/01/01 07:21:31;;;;;;;11.23;3.10;;;11.60;99.90;;;;;;6154424;23;20017;-80
2023/01/01 07:23:58;;;;;;;13.82;3.22;;;11.60;99.90;;;;;;6154614;23;20021;-81
2023/01/01 07:26:25;;;;;;;17.08;3.53;;;11.60;99.90;;;;;;6154739;23;20510;-81
2023/01/01 07:28:51;;;;;;;12.85;2.75;;;11.60;99.90;;;;;;6154945;23;20013;-81
2023/01/01 07:31:16;;;;;;;13.93;3.00;;;11.70;99.90;;;;;;6152361;23;20068;-81
2023/01/01 07:33:42;;;;;;;11.77;2.50;;;11.60;99.90;;;;;;6154422;23;20009;-81
2023/01/01 07:36:07;;;;;;;14.80;2.65;;;11.50;99.90;;;;;;6152856;23;20353;-81
2023/01/01 07:38:33;;;;;;;16.75;3.13;;;11.50;99.90;;;;;;6154548;23;20010;-81
2023/01/01 07:40:59;;;;;;;13.43;2.72;;;11.50;99.90;;;;;;6152724;23;20036;-81
2023/01/01 07:43:24;;;;;;;16.90;3.33;;;11.40;99.90;;;;;;6153467;23;20024;-81
2023/01/01 07:45:50;;;;;;;13.65;3.58;;;11.40;99.90;;;;;;6152656;23;20056;-80
2023/01/01 07:48:16;;;;;;;14.80;3.13;;;11.40;99.90;;;;;;6154717;23;20459;-81
2023/01/01 07:50:42;;;;;;;13.75;3.08;;;11.40;99.90;;;;;;6154679;23;20013;-81
2023/01/01 07:53:08;;;;;;;14.32;3.58;;;11.40;99.90;;;;;;6153801;23;20040;-80
2023/01/01 07:55:34;;;;;;;12.80;3.28;;;11.40;99.90;;;;;;6152202;23;20044;-79
2023/01/01 07:58:00;;;;;;;15.57;3.70;;;11.40;99.90;;;;;;6152436;23;20013;-78
2023/01/01 08:00:26;;;;;;;16.73;3.17;;;11.30;99.90;;;;;;6126832;23;20024;-78
2023/01/01 08:02:51;;;;;;;16.55;3.67;;;11.30;99.90;;;;;;6127683;23;20463;-78
2023/01/01 08:05:17;;;;;;;14.88;3.60;;;11.40;99.90;;;;;;6152506;23;20009;-79
2023/01/01 08:07:48;;;;;;;13.68;3.58;;;11.30;99.90;;;;;;6152630;23;20006;-79
2023/01/01 08:10:15;;;;;;;15.10;3.25;;;11.40;99.90;;;;;;6152143;23;20511;-79
2023/01/01 08:12:41;;;;;;;16.80;3.50;;;11.30;99.90;;;;;;6152267;23;20386;-80
2023/01/01 08:15:07;;;;;;;16.23;3.83;;;11.20;99.90;;;;;;6151284;23;20060;-79
2023/01/01 08:17:33;;;;;;;16.58;3.70;;;11.30;99.90;;;;;;6153793;23;20084;-79
2023/01/01 08:19:58;;;;;;;17.33;3.70;;;11.20;99.90;;;;;;6151587;23;20444;-79
2023/01/01 08:22:24;;;;;;;17.05;3.70;;;11.20;99.90;;;;;;6151911;23;20048;-79
2023/01/01 08:24:49;;;;;;;20.42;4.40;;;11.20;99.90;;;;;;6153814;23;20016;-79
2023/01/01 08:27:16;;;;;;;14.35;3.08;;;11.30;99.90;;;;;;6152213;23;20005;-80
2023/01/01 08:29:42;;;;;;;16.95;3.67;;;11.30;99.90;;;;;;6151200;23;20013;-79
2023/01/01 08:32:08;;;;;;;15.57;3.40;;;11.30;99.90;;;;;;6127437;23;20060;-80
2023/01/01 08:34:34;;;;;;;20.73;4.30;;;11.30;99.90;;;;;;6153908;23;20202;-80
2023/01/01 08:36:59;;;;;;;16.70;4.38;;;11.30;99.90;;;;;;6153055;23;20088;-80
2023/01/01 08:39:25;;;;;;;14.13;3.35;;;11.30;99.90;;;;;;6151519;23;20068;-79
2023/01/01 08:41:51;;;;;;;17.52;3.80;;;11.30;99.90;;;;;;6151562;23;20503;-80
2023/01/01 08:44:16;;;;;;;17.98;3.60;;;11.40;99.90;;;;;;6151053;23;20010;-80
2023/01/01 08:46:42;;;;;;;19.75;3.90;;;11.30;99.90;;;;;;6153396;23;20018;-80
2023/01/01 08:49:07;;;;;;;15.73;3.65;;;11.30;99.90;;;;;;6151524;23;20340;-80
2023/01/01 08:51:33;;;;;;;21.90;3.78;;;11.30;99.90;;;;;;6153367;23;20013;-81
2023/01/01 08:53:59;;;;;;;16.58;4.35;;;11.30;99.90;;;;;;6151354;23;20014;-80
2023/01/01 08:56:24;;;;;;;18.45;3.88;;;11.30;99.90;;;;;;6153193;23;20025;-80
2023/01/01 08:58:50;;;;;;;23.17;3.97;;;11.40;99.90;;;;;;6152717;23;20037;-80
2023/01/01 09:01:15;;;;;;;19.50;4.07;;;11.20;99.90;;;;;;6126555;23;20466;-80
2023/01/01 09:03:41;;;;;;;19.27;4.25;;;11.20;99.90;;;;;;6151284;23;20017;-83
2023/01/01 09:06:07;;;;;;;20.88;4.65;;;11.20;99.90;;;;;;6151358;23;20017;-80
2023/01/01 09:08:32;;;;;;;16.08;4.03;;;11.20;99.90;;;;;;6151420;23;20037;-81
2023/01/01 09:11:01;;;;;;;21.58;3.80;;;11.30;99.90;;;;;;6153389;23;20040;-80
2023/01/01 09:13:28;;;;;;;12.07;4.18;;;11.30;99.90;;;;;;6150563;23;20020;-80
2023/01/01 09:15:55;;;;;;;20.20;5.00;;;11.30;99.90;;;;;;6151413;23;20025;-80
2023/01/01 09:18:21;;;;;;;18.35;4.47;;;11.20;99.90;;;;;;6151313;23;20009;-80
2023/01/01 09:20:47;;;;;;;21.20;4.60;;;11.30;99.90;;;;;;6126204;23;20014;-80
2023/01/01 09:23:13;;;;;;;20.38;3.72;;;11.30;99.90;;;;;;6126709;23;20041;-80
2023/01/01 09:25:38;;;;;;;25.77;5.05;;;11.30;99.90;;;;;;6151439;23;20037;-80
2023/01/01 09:28:07;;;;;;;21.48;4.30;;;11.30;99.90;;;;;;6150537;23;20408;-80
2023/01/01 09:30:33;;;;;;;22.80;4.43;;;11.30;99.90;;;;;;6151232;23;20079;-80
2023/01/01 09:32:59;;;;;;;19.50;4.80;;;11.30;99.90;;;;;;6126700;23;20014;-80
2023/01/01 09:35:25;;;;;;;23.75;4.25;;;11.30;99.90;;;;;;6151531;23;20010;-80
2023/01/01 09:37:50;;;;;;;23.33;5.20;;;11.40;99.90;;;;;;6152583;23;20490;-80
2023/01/01 09:41:17;;;;;;;18.17;3.60;;;11.30;99.90;;;;;;6150747;23;20036;-80
2023/01/01 09:44:12;;;;;;;21.10;4.00;;;11.30;99.90;;;;;;6066288;23;20345;-80
2023/01/01 09:46:38;;;;;;;18.80;4.07;;;11.30;99.90;;;;;;6091207;23;20010;-80
2023/01/01 09:49:17;;;;;;;27.77;5.00;;;11.40;99.90;;;;;;6091235;23;20041;-80
2023/01/01 09:51:45;;;;;;;19.08;4.13;;;11.40;99.90;;;;;;6067191;23;20085;-80
2023/01/01 09:54:36;;;;;;;18.92;4.63;;;11.40;99.90;;;;;;6091196;23;20018;-81
2023/01/01 09:57:07;;;;;;;18.88;4.63;;;11.50;99.90;;;;;;6067200;23;20015;-80
2023/01/01 09:59:33;;;;;;;20.63;3.78;;;11.50;99.90;;;;;;6045103;23;20014;-81
2023/01/01 10:02:29;;;;;;;19.27;4.25;;;11.50;99.90;;;;;;6069248;23;20145;-81
2023/01/01 10:05:10;;;;;;;22.00;4.50;;;11.50;99.90;;;;;;6069219;23;20097;-81
2023/01/01 10:07:51;;;;;;;16.05;3.85;;;11.50;99.90;;;;;;6069143;23;20057;-81
2023/01/01 10:10:25;;;;;;;22.40;4.28;;;11.60;99.90;;;;;;6044961;23;20069;-81
2023/01/01 10:13:12;;;;;;;21.88;4.45;;;11.60;99.90;;;;;;6068688;23;20459;-81
2023/01/01 10:15:43;;;;;;;23.85;4.25;;;11.60;99.90;;;;;;6069218;23;20080;-81
2023/01/01 10:18:18;;;;;;;20.90;4.47;;;11.60;99.90;;;;;;6094651;23;20066;-81
2023/01/01 10:21:00;;;;;;;20.65;3.70;;;11.60;99.90;;;;;;6153098;23;20017;-81
2023/01/01 10:23:32;;;;;;;24.67;4.55;;;11.50;99.90;;;;;;6154937;23;20140;-81
2023/01/01 10:26:05;;;;;;;23.77;5.03;;;11.50;99.90;;;;;;6153131;23;20332;-81
2023/01/01 10:28:45;;;;;;;26.77;5.30;;;11.50;99.90;;;;;;6153220;23;20016;-81
2023/01/01 10:31:24;;;;;;;19.50;4.22;;;11.40;99.90;;;;;;6153067;23;20010;-81
2023/01/01 10:33:50;;;;;;;21.15;4.50;;;11.40;99.90;;;;;;6128576;23;20013;-81
2023/01/01 10:36:18;;;;;;;20.30;4.82;;;11.40;99.90;;;;;;6128323;23;20444;-81
2023/01/01 10:38:44;;;;;;;19.25;4.72;;;11.40;99.90;;;;;;6153023;23;20018;-81
2023/01/01 10:41:11;;;;;;;21.80;4.35;;;11.40;99.90;;;;;;6152571;23;20040;-81
2023/01/01 10:43:37;;;;;;;17.17;4.15;;;11.30;99.90;;;;;;6152847;23;20091;-81
2023/01/01 10:46:04;;;;;;;19.38;4.03;;;11.20;99.90;;;;;;6152841;23;20013;-81
2023/01/01 10:48:31;;;;;;;15.60;4.13;;;11.20;99.90;;;;;;6154750;23;20328;-81
2023/01/01 10:51:00;;;;;;;17.70;3.95;;;11.20;99.90;;;;;;6152717;23;20080;-80
2023/01/01 10:53:31;;;;;;;17.38;3.72;;;11.20;99.90;;;;;;6152983;23;20079;-81
2023/01/01 10:56:12;;;;;;;16.17;3.38;;;11.20;99.90;;;;;;6153732;23;20044;-81
2023/01/01 10:58:39;;;;;;;15.48;3.65;;;11.20;99.90;;;;;;6128206;23;20029;-81
2023/01/01 11:01:08;;;;;;;16.15;4.15;;;11.10;99.90;;;;;;6154630;23;20052;-81
2023/01/01 11:03:34;;;;;;;18.45;4.00;;;11.00;99.90;;;;;;6155027;23;20154;-81
2023/01/01 11:06:27;;;;;;;15.60;3.50;;;11.10;99.90;;;;;;6154471;23;20014;-80
2023/01/01 11:08:55;;;;;;;18.13;3.83;;;11.10;99.90;;;;;;6151644;23;20024;-81
2023/01/01 11:11:29;;;;;;;18.95;4.22;;;11.20;99.90;;;;;;6154590;23;20144;-81
2023/01/01 11:14:03;;;;;;;16.80;3.53;;;11.10;99.90;;;;;;6127748;23;20021;-81
2023/01/01 11:16:29;;;;;;;;;;;11.20;99.90;;;;;;6155147;23;20013;-81
2023/01/01 11:19:05;;;;;;;13.43;2.88;;;11.10;99.90;;;;;;6154701;23;20035;-81
2023/01/01 11:21:32;;;;;;;15.98;3.22;;;11.30;99.90;;;;;;6154095;23;20014;-81
2023/01/01 11:24:22;;;;;;;17.27;3.97;;;11.20;99.90;;;;;;6153615;23;20016;-81
2023/01/01 11:26:48;;;;;;;18.65;3.53;;;11.20;99.90;;;;;;6152308;23;20064;-81
2023/01/01 11:29:25;;;;;;;17.83;3.50;;;11.30;99.90;;;;;;6152215;23;20013;-81
2023/01/01 11:31:51;;;;;;;17.30;3.65;;;11.30;99.90;;;;;;6152335;23;20039;-81
2023/01/01 11:34:28;;;;;;;15.65;3.25;;;11.30;99.90;;;;;;6127874;23;20044;-81
2023/01/01 11:37:12;;;;;;;17.60;3.63;;;11.30;99.90;;;;;;6154304;23;20048;-80
2023/01/01 11:39:42;;;;;;;16.70;3.53;;;11.30;99.90;;;;;;6151373;23;20064;-81
2023/01/01 11:42:14;;;;;;;14.95;3.33;;;11.30;99.90;;;;;;6153366;23;20014;-81
2023/01/01 11:44:44;;;;;;;18.30;3.53;;;11.30;99.90;;;;;;6125519;23;20451;-80
2023/01/01 11:47:36;;;;;;;15.18;3.25;;;11.30;99.90;;;;;;6151435;23;20512;-81
2023/01/01 11:50:38;;;;;;;14.52;3.47;;;11.30;99.90;;;;;;6150817;23;20021;-80
2023/01/01 11:53:22;;;;;;;15.07;2.85;;;11.30;99.90;;;;;;6150853;23;20017;-80
2023/01/01 11:55:49;;;;;;;;;;;11.40;99.90;;;;;;6153581;23;20037;-80
2023/01/01 11:58:17;;;;;;;19.63;3.83;;;11.40;99.90;;;;;;6151201;23;19963;-80
2023/01/01 12:00:46;;;;;;;14.10;3.10;;;11.70;99.90;;;;;;6150836;23;20029;-80
2023/01/01 12:03:23;;;;;;;17.13;3.83;;;11.50;99.90;;;;;;6152653;23;20369;-80
2023/01/01 12:06:15;;;;;;;17.67;3.33;;;11.60;99.90;;;;;;6150582;23;20009;-80
2023/01/01 12:08:43;;;;;;;14.88;3.70;;;11.70;99.90;;;;;;6150566;23;20391;-79
2023/01/01 12:11:28;;;;;;;14.75;3.92;;;11.70;99.90;;;;;;6152955;23;20017;-80
2023/01/01 12:14:03;;;;;;;16.75;3.25;;;11.80;99.90;;;;;;6150989;23;20020;-79
2023/01/01 12:16:51;;;;;;;15.70;3.13;;;11.80;99.90;;;;;;6152250;23;20010;-80
2023/01/01 12:19:34;;;;;;;16.55;2.97;;;11.90;99.90;;;;;;6152830;23;20023;-79
2023/01/01 12:22:00;;;;;;;19.27;3.45;;;11.90;99.90;;;;;;6151463;23;20037;-79
2023/01/01 12:24:32;;;;;;;15.60;3.95;;;11.90;99.90;;;;;;6149913;23;20017;-79
2023/01/01 12:27:15;;;;;;;21.00;3.80;;;11.90;99.90;;;;;;6152692;23;20021;-79
2023/01/01 12:29:59;;;;;;;17.83;3.90;;;11.90;99.90;;;;;;6151269;23;20603;-80
2023/01/01 12:32:58;;;;;;;13.80;3.03;;;11.90;99.90;;;;;;6126131;23;20352;-80
2023/01/01 12:35:59;;;;;;;20.13;3.67;;;11.90;99.90;;;;;;6125672;23;20021;-80
2023/01/01 12:38:38;;;;;;;13.35;3.00;;;11.90;99.90;;;;;;6150883;23;20036;-78
2023/01/01 12:41:23;;;;;;;13.13;3.33;;;11.90;99.90;;;;;;6126279;23;20017;-79
2023/01/01 12:43:59;;;;;;;18.70;3.80;;;11.90;99.90;;;;;;6153168;23;20077;-79
2023/01/01 12:46:37;;;;;;;16.77;4.50;;;11.90;99.90;;;;;;6150037;23;20017;-79
2023/01/01 12:49:30;;;;;;;15.93;3.70;;;11.90;99.90;;;;;;6151093;23;20390;-79
2023/01/01 12:52:21;;;;;;;18.80;3.45;;;11.80;99.90;;;;;;6089928;23;20015;-79
2023/01/01 12:55:18;;;;;;;17.52;3.47;;;11.80;99.90;;;;;;6083479;23;20014;-78
2023/01/01 12:57:55;;;;;;;87.18;7.47;;;11.80;99.90;;;;;;6090586;23;20010;-79